Time;durP1;ratioP1;P1;durP2;ratioP2;P2;SDS_P1;SDS_P2;PMS_P1;PMS_P2;Temp;Humidity;BMP_temperature;BMP_pressure;BME280_temperature;BME280_humidity;BME280_pressure;Samples;Min_cycle;Max_cycle;Signal;HPM_P1;HPM_P2
2023/08/06 00:02:13;;;;;;;9.07;7.03;;;15.00;99.90;;;;;;5074259;28;20071;-71
2023/08/06 00:04:39;;;;;;;8.20;7.40;;;15.10;99.90;;;;;;5073390;28;20425;-71
2023/08/06 00:07:05;;;;;;;8.25;7.40;;;15.10;99.90;;;;;;5073591;28;20036;-71
2023/08/06 00:09:30;;;;;;;7.85;7.15;;;15.00;99.90;;;;;;5073280;28;20032;-71
2023/08/06 00:11:56;;;;;;;8.90;7.97;;;15.10;99.90;;;;;;5073406;28;20044;-71
2023/08/06 00:14:21;;;;;;;9.10;7.72;;;15.10;99.90;;;;;;5072761;28;20386;-71
2023/08/06 00:16:47;;;;;;;10.63;8.05;;;15.10;99.90;;;;;;5072929;28;20071;-71
2023/08/06 00:19:13;;;;;;;9.13;7.25;;;15.10;99.90;;;;;;5073057;28;20040;-71
2023/08/06 00:21:38;;;;;;;9.48;7.35;;;15.00;99.90;;;;;;5072926;28;20033;-71
2023/08/06 00:24:04;;;;;;;12.30;7.72;;;15.00;99.90;;;;;;5073021;28;20144;-71
2023/08/06 00:26:30;;;;;;;9.55;7.90;;;15.00;99.90;;;;;;5056264;28;20040;-71
2023/08/06 00:28:55;;;;;;;11.93;7.85;;;15.10;99.90;;;;;;5073159;28;20047;-71
2023/08/06 00:31:21;;;;;;;9.98;7.90;;;15.00;99.90;;;;;;5074070;28;20481;-71
2023/08/06 00:33:46;;;;;;;10.45;7.97;;;15.00;99.90;;;;;;5072813;28;20048;-71
2023/08/06 00:36:12;;;;;;;7.78;6.90;;;15.00;99.90;;;;;;5073018;28;20120;-71
2023/08/06 00:38:38;;;;;;;10.07;7.47;;;15.00;99.90;;;;;;5072785;28;20037;-71
2023/08/06 00:41:03;;;;;;;11.10;8.32;;;15.00;99.90;;;;;;5072571;28;20078;-71
2023/08/06 00:43:29;;;;;;;9.50;7.63;;;15.00;99.90;;;;;;5072602;28;20052;-71
2023/08/06 00:45:55;;;;;;;12.20;7.10;;;15.00;99.90;;;;;;5072581;28;20072;-71
2023/08/06 00:48:21;;;;;;;8.93;8.02;;;15.00;99.90;;;;;;5072531;28;20050;-71
2023/08/06 00:50:47;;;;;;;9.68;7.78;;;15.00;99.90;;;;;;5073876;28;20119;-71
2023/08/06 00:53:13;;;;;;;8.05;7.25;;;14.90;99.90;;;;;;5072382;28;20511;-71
2023/08/06 00:55:39;;;;;;;9.65;6.57;;;15.00;99.90;;;;;;5072414;28;20071;-71
2023/08/06 00:58:05;;;;;;;8.80;7.90;;;15.00;99.90;;;;;;5056075;28;20043;-71
2023/08/06 01:00:30;;;;;;;8.45;6.95;;;15.00;99.90;;;;;;5072362;28;20405;-71
2023/08/06 01:02:56;;;;;;;11.45;7.85;;;14.90;99.90;;;;;;5074139;28;20187;-71
2023/08/06 01:05:23;;;;;;;10.20;7.70;;;15.00;99.90;;;;;;5072465;28;20048;-71
2023/08/06 01:08:03;;;;;;;9.80;7.72;;;14.90;99.90;;;;;;5072220;28;20561;-71
2023/08/06 01:10:40;;;;;;;9.02;7.45;;;14.90;99.90;;;;;;5072041;28;20120;-71
2023/08/06 01:13:34;;;;;;;10.75;7.80;;;15.00;99.90;;;;;;5055382;28;20409;-71
2023/08/06 01:16:01;;;;;;;9.85;8.05;;;14.90;99.90;;;;;;5071616;28;20059;-71
2023/08/06 01:18:27;;;;;;;11.80;8.23;;;14.90;99.90;;;;;;5073361;28;20090;-71
2023/08/06 01:20:52;;;;;;;10.25;7.95;;;14.90;99.90;;;;;;5073527;28;20029;-71
2023/08/06 01:23:19;;;;;;;8.82;7.53;;;14.90;99.90;;;;;;5072336;28;20504;-71
2023/08/06 01:25:57;;;;;;;9.90;7.35;;;14.90;99.90;;;;;;5071938;28;20044;-71
2023/08/06 01:28:29;;;;;;;10.80;7.78;;;14.90;99.90;;;;;;5073331;28;20033;-71
2023/08/06 01:30:59;;;;;;;8.57;7.53;;;14.90;99.90;;;;;;5071898;28;20044;-71
2023/08/06 01:33:27;;;;;;;10.48;7.38;;;14.90;99.90;;;;;;5071865;28;20123;-71
2023/08/06 01:35:54;;;;;;;11.98;8.63;;;14.90;99.90;;;;;;5073127;28;20508;-71
2023/08/06 01:38:20;;;;;;;10.00;7.30;;;14.80;99.90;;;;;;5071805;28;20044;-71
2023/08/06 01:40:46;;;;;;;10.15;7.80;;;14.90;99.90;;;;;;5073320;28;20039;-71
2023/08/06 01:43:12;;;;;;;9.57;7.80;;;14.80;99.90;;;;;;5073078;28;20123;-71
2023/08/06 01:45:37;;;;;;;9.43;6.05;;;14.80;99.90;;;;;;5071773;28;20040;-71
2023/08/06 01:48:03;;;;;;;8.88;7.78;;;14.80;99.90;;;;;;5073004;28;20044;-71
2023/08/06 01:50:29;;;;;;;10.80;7.05;;;14.70;99.90;;;;;;5071890;28;20032;-71
2023/08/06 01:52:54;;;;;;;8.75;6.78;;;14.70;99.90;;;;;;5071687;28;20556;-71
2023/08/06 01:55:20;;;;;;;8.32;7.35;;;14.80;99.90;;;;;;5071952;28;20040;-71
2023/08/06 01:57:45;;;;;;;8.95;7.50;;;14.70;99.90;;;;;;5071664;28;20486;-71
2023/08/06 02:00:12;;;;;;;9.57;7.82;;;14.70;99.90;;;;;;5071641;28;20049;-71
2023/08/06 02:02:37;;;;;;;10.82;6.85;;;14.70;99.90;;;;;;5072712;28;20440;-71
2023/08/06 02:05:03;;;;;;;10.27;7.28;;;14.70;99.90;;;;;;5071701;28;20048;-71
2023/08/06 02:07:29;;;;;;;9.73;7.13;;;14.70;99.90;;;;;;5073055;28;20044;-71
2023/08/06 02:09:55;;;;;;;10.25;7.38;;;14.70;99.90;;;;;;5071402;28;20124;-71
2023/08/06 02:12:20;;;;;;;7.95;7.15;;;14.60;99.90;;;;;;5071401;28;20048;-71
2023/08/06 02:14:46;;;;;;;11.80;7.63;;;14.70;99.90;;;;;;5071466;28;20083;-71
2023/08/06 02:17:11;;;;;;;8.60;7.68;;;14.60;99.90;;;;;;5071448;28;20104;-71
2023/08/06 02:19:37;;;;;;;12.02;7.72;;;14.60;99.90;;;;;;5071471;28;20048;-71
2023/08/06 02:22:02;;;;;;;9.90;8.32;;;14.60;99.90;;;;;;5072564;28;20029;-71
2023/08/06 02:24:28;;;;;;;11.02;7.13;;;14.70;99.90;;;;;;5071403;28;20476;-71
2023/08/06 02:26:55;;;;;;;9.82;7.18;;;14.70;99.90;;;;;;5072574;28;20040;-71
2023/08/06 02:29:21;;;;;;;11.43;7.65;;;14.70;99.90;;;;;;5072643;28;20041;-71
2023/08/06 02:31:46;;;;;;;7.57;6.65;;;14.70;99.90;;;;;;5071522;28;20056;-72
2023/08/06 02:34:12;;;;;;;10.20;7.45;;;14.70;99.90;;;;;;5072528;28;20049;-72
2023/08/06 02:36:37;;;;;;;10.88;7.72;;;14.70;99.90;;;;;;5071538;28;20105;-72
2023/08/06 02:39:03;;;;;;;10.43;7.70;;;14.70;99.90;;;;;;5073743;28;20578;-72
2023/08/06 02:41:29;;;;;;;10.38;8.02;;;14.70;99.90;;;;;;5076188;28;20043;-72
2023/08/06 02:43:54;;;;;;;10.10;7.40;;;14.80;99.90;;;;;;5075235;28;20044;-72
2023/08/06 02:46:20;;;;;;;7.80;7.00;;;14.80;99.90;;;;;;5074941;28;20557;-72
2023/08/06 02:48:46;;;;;;;11.55;7.68;;;14.80;99.90;;;;;;5076502;28;20028;-72
2023/08/06 02:51:11;;;;;;;9.45;7.30;;;14.70;99.90;;;;;;5075952;28;20082;-72
2023/08/06 02:53:37;;;;;;;9.82;7.60;;;14.80;99.90;;;;;;5075954;28;20075;-72
2023/08/06 02:56:02;;;;;;;7.78;6.65;;;14.80;99.90;;;;;;5074716;28;20043;-72
2023/08/06 02:58:28;;;;;;;9.32;8.05;;;14.70;99.90;;;;;;5074648;28;20174;-72
2023/08/06 03:01:05;;;;;;;10.68;7.28;;;14.80;99.90;;;;;;5074544;28;20047;-72
2023/08/06 03:03:31;;;;;;;10.77;8.07;;;14.80;99.90;;;;;;5075794;28;20520;-72
2023/08/06 03:05:57;;;;;;;12.52;8.13;;;14.80;99.90;;;;;;5074617;28;20080;-72
2023/08/06 03:08:23;;;;;;;9.52;7.75;;;14.80;99.90;;;;;;5074713;28;20044;-72
2023/08/06 03:10:49;;;;;;;11.32;7.65;;;14.80;99.90;;;;;;5074251;28;20566;-72
2023/08/06 03:13:16;;;;;;;8.70;7.78;;;14.80;99.90;;;;;;5074398;28;20048;-72
2023/08/06 03:15:42;;;;;;;9.20;8.30;;;14.70;99.90;;;;;;5074420;28;20044;-72
2023/08/06 03:18:07;;;;;;;9.27;8.13;;;14.80;99.90;;;;;;5075602;28;20036;-72
2023/08/06 03:20:33;;;;;;;11.02;9.10;;;14.70;99.90;;;;;;5074192;28;20048;-72
2023/08/06 03:22:59;;;;;;;11.88;7.82;;;14.70;99.90;;;;;;5074216;28;20048;-72
2023/08/06 03:25:24;;;;;;;12.63;8.00;;;14.70;99.90;;;;;;5074505;28;20054;-72
2023/08/06 03:27:50;;;;;;;10.57;8.32;;;14.70;99.90;;;;;;5074168;28;20049;-72
2023/08/06 03:30:15;;;;;;;10.45;9.25;;;14.60;99.90;;;;;;5074031;28;20044;-72
2023/08/06 03:32:41;;;;;;;10.13;8.57;;;14.60;99.90;;;;;;5074015;28;20040;-72
2023/08/06 03:35:07;;;;;;;10.95;8.40;;;14.60;99.90;;;;;;5074018;28;20047;-72
2023/08/06 03:37:32;;;;;;;11.85;9.38;;;14.60;99.90;;;;;;5074816;28;20044;-72
2023/08/06 03:39:58;;;;;;;9.85;8.68;;;14.60;99.90;;;;;;5075503;28;20032;-72
2023/08/06 03:42:24;;;;;;;13.05;9.80;;;14.60;99.90;;;;;;5074111;28;20040;-72
2023/08/06 03:44:49;;;;;;;13.98;9.57;;;14.60;99.90;;;;;;5073899;28;20618;-72
2023/08/06 03:47:15;;;;;;;9.77;8.77;;;14.60;99.90;;;;;;5073860;28;20102;-72
2023/08/06 03:49:40;;;;;;;9.63;8.38;;;14.70;99.90;;;;;;5072854;28;20037;-72
2023/08/06 03:52:06;;;;;;;13.23;8.68;;;14.60;99.90;;;;;;5074822;28;20033;-72
2023/08/06 03:54:32;;;;;;;12.02;9.55;;;14.50;99.90;;;;;;5073609;28;20123;-72
2023/08/06 03:56:58;;;;;;;10.43;9.15;;;14.60;99.90;;;;;;5073878;28;20033;-72
2023/08/06 03:59:23;;;;;;;10.77;9.68;;;14.60;99.90;;;;;;5073857;28;20389;-72
2023/08/06 04:01:49;;;;;;;10.50;8.30;;;14.60;99.90;;;;;;5074934;28;20396;-72
2023/08/06 04:04:14;;;;;;;13.15;9.63;;;14.50;99.90;;;;;;5073817;28;20055;-72
2023/08/06 04:06:40;;;;;;;11.80;9.70;;;14.50;99.90;;;;;;5073413;28;20566;-72
2023/08/06 04:09:06;;;;;;;12.38;9.40;;;14.50;99.90;;;;;;5073251;28;20036;-72
2023/08/06 04:11:31;;;;;;;13.88;9.88;;;14.50;99.90;;;;;;5074423;28;20037;-72
2023/08/06 04:13:57;;;;;;;12.20;9.93;;;14.50;99.90;;;;;;5074479;28;20052;-72
2023/08/06 04:16:22;;;;;;;10.65;9.65;;;14.50;99.90;;;;;;5074379;28;20040;-72
2023/08/06 04:18:48;;;;;;;12.27;9.77;;;14.50;99.90;;;;;;5073400;28;20033;-72
2023/08/06 04:21:14;;;;;;;11.90;10.52;;;14.50;99.90;;;;;;5073327;28;20076;-72
2023/08/06 04:23:39;;;;;;;10.07;8.88;;;14.50;99.90;;;;;;5073191;28;20048;-72
2023/08/06 04:26:05;;;;;;;10.73;8.68;;;14.50;99.90;;;;;;5073024;28;20048;-72
2023/08/06 04:28:30;;;;;;;11.90;9.88;;;14.50;99.90;;;;;;5073228;28;20044;-72
2023/08/06 04:30:56;;;;;;;14.30;10.65;;;14.50;99.90;;;;;;5074091;28;20115;-72
2023/08/06 04:33:22;;;;;;;10.63;8.57;;;14.50;99.90;;;;;;5074377;28;20401;-72
2023/08/06 04:35:53;;;;;;;10.40;9.23;;;14.50;99.90;;;;;;5074111;28;20080;-72
2023/08/06 04:38:18;;;;;;;11.55;10.25;;;14.50;99.90;;;;;;5056140;28;20041;-72
2023/08/06 04:40:44;;;;;;;16.08;10.65;;;14.50;99.90;;;;;;5055994;28;20043;-72
2023/08/06 04:43:09;;;;;;;12.07;10.20;;;14.60;99.90;;;;;;5072922;28;20040;-72
2023/08/06 04:45:35;;;;;;;12.88;10.57;;;14.60;99.90;;;;;;5072583;28;20497;-72
2023/08/06 04:48:00;;;;;;;13.10;9.65;;;14.60;99.90;;;;;;5055937;28;20082;-72
2023/08/06 04:50:26;;;;;;;12.70;10.73;;;14.60;99.90;;;;;;5055803;28;20044;-72
2023/08/06 04:52:52;;;;;;;13.10;10.50;;;14.70;99.90;;;;;;5072392;28;20043;-72
2023/08/06 04:55:17;;;;;;;13.55;10.80;;;14.70;99.90;;;;;;5055841;28;20093;-72
2023/08/06 04:57:43;;;;;;;11.43;9.48;;;14.60;99.90;;;;;;5072597;28;20075;-72
2023/08/06 05:00:09;;;;;;;11.18;10.07;;;14.70;99.90;;;;;;5072409;28;20047;-72
2023/08/06 05:02:34;;;;;;;13.60;10.75;;;14.70;99.90;;;;;;5072397;28;20040;-72
2023/08/06 05:05:00;;;;;;;15.23;9.48;;;14.80;99.90;;;;;;5072359;28;20051;-72
2023/08/06 05:07:26;;;;;;;11.35;10.00;;;14.80;99.90;;;;;;5073515;28;20123;-72
2023/08/06 05:09:51;;;;;;;11.13;10.00;;;14.80;99.90;;;;;;5073516;28;20041;-72
2023/08/06 05:12:17;;;;;;;13.35;10.50;;;14.80;99.90;;;;;;5072008;28;20062;-72
2023/08/06 05:14:42;;;;;;;10.25;9.13;;;14.70;99.90;;;;;;5072162;28;20044;-72
2023/08/06 05:17:08;;;;;;;13.43;11.02;;;14.80;99.90;;;;;;5072191;28;20032;-72
2023/08/06 05:19:34;;;;;;;12.95;11.45;;;14.80;99.90;;;;;;5072103;28;20036;-72
2023/08/06 05:22:00;;;;;;;11.23;10.13;;;14.80;99.90;;;;;;5073212;28;20044;-72
2023/08/06 05:24:26;;;;;;;12.05;10.32;;;14.90;99.90;;;;;;5072056;28;20072;-72
2023/08/06 05:26:51;;;;;;;15.40;11.50;;;14.90;99.90;;;;;;5072291;28;20083;-72
2023/08/06 05:29:17;;;;;;;13.52;9.68;;;14.90;99.90;;;;;;5055640;28;20047;-72
2023/08/06 05:31:43;;;;;;;13.05;11.70;;;14.90;99.90;;;;;;5072172;28;20554;-71
2023/08/06 05:34:09;;;;;;;12.15;10.77;;;15.00;99.90;;;;;;5073396;28;20541;-71
2023/08/06 05:36:34;;;;;;;14.90;11.43;;;15.10;99.90;;;;;;5071964;28;20505;-71
2023/08/06 05:39:00;;;;;;;10.40;9.40;;;15.00;99.90;;;;;;5071990;28;20068;-72
2023/08/06 05:41:25;;;;;;;12.15;10.85;;;15.10;99.90;;;;;;5071808;28;20037;-72
2023/08/06 05:43:51;;;;;;;13.40;10.70;;;15.20;99.90;;;;;;5073076;28;20127;-72
2023/08/06 05:46:16;;;;;;;11.23;9.95;;;15.10;99.90;;;;;;5072074;28;20119;-72
2023/08/06 05:48:42;;;;;;;12.93;10.38;;;15.20;99.90;;;;;;5073265;28;20036;-72
2023/08/06 05:51:08;;;;;;;11.68;9.35;;;15.20;99.90;;;;;;5071763;28;20051;-72
2023/08/06 05:53:33;;;;;;;12.35;10.95;;;15.20;99.90;;;;;;5073272;28;20040;-72
2023/08/06 05:55:59;;;;;;;11.75;10.48;;;15.30;99.90;;;;;;5073281;28;20036;-72
2023/08/06 05:58:26;;;;;;;12.15;10.70;;;15.30;99.90;;;;;;5071712;28;20039;-72
2023/08/06 06:00:52;;;;;;;15.25;10.27;;;15.40;99.90;;;;;;5071728;28;20116;-72
2023/08/06 06:03:17;;;;;;;14.73;11.18;;;15.40;99.90;;;;;;5072979;28;20151;-72
2023/08/06 06:05:43;;;;;;;11.80;10.50;;;15.40;99.90;;;;;;5071923;28;20037;-71
2023/08/06 06:08:08;;;;;;;13.48;11.48;;;15.40;99.90;;;;;;5072155;28;20040;-71
2023/08/06 06:10:35;;;;;;;12.98;10.52;;;15.40;99.90;;;;;;5071687;28;20052;-71
2023/08/06 06:13:00;;;;;;;11.88;10.77;;;15.50;99.90;;;;;;5072605;28;20045;-71
2023/08/06 06:15:26;;;;;;;12.13;10.50;;;15.60;99.90;;;;;;5076261;28;20036;-71
2023/08/06 06:17:51;;;;;;;13.18;10.85;;;15.60;99.90;;;;;;5075656;28;20493;-71
2023/08/06 06:20:17;;;;;;;10.68;9.63;;;15.60;99.90;;;;;;5075441;28;20052;-71
2023/08/06 06:22:42;;;;;;;11.02;9.93;;;15.70;99.90;;;;;;5075466;28;20066;-71
2023/08/06 06:25:10;;;;;;;11.02;10.02;;;15.70;99.90;;;;;;5075314;28;20097;-72
2023/08/06 06:27:35;;;;;;;14.32;10.90;;;15.70;99.90;;;;;;5075135;28;20059;-72
2023/08/06 06:30:01;;;;;;;12.35;10.10;;;15.70;99.90;;;;;;5075025;28;20033;-72
2023/08/06 06:32:26;;;;;;;12.50;11.30;;;15.70;99.90;;;;;;5075206;28;20071;-72
2023/08/06 06:34:52;;;;;;;12.63;11.35;;;15.60;99.90;;;;;;5075487;28;20044;-72
2023/08/06 06:37:17;;;;;;;13.35;10.57;;;15.60;99.90;;;;;;5075371;28;20377;-72
2023/08/06 06:39:44;;;;;;;12.93;11.43;;;15.70;99.90;;;;;;5075341;28;20093;-72
2023/08/06 06:42:10;;;;;;;11.93;10.77;;;15.70;99.90;;;;;;5075144;28;20375;-72
2023/08/06 06:44:35;;;;;;;12.55;10.55;;;15.70;99.90;;;;;;5075005;28;20046;-72
2023/08/06 06:47:01;;;;;;;12.48;11.38;;;15.70;99.90;;;;;;5075253;28;20074;-72
2023/08/06 06:49:26;;;;;;;12.90;11.60;;;15.70;99.90;;;;;;5074936;28;20493;-72
2023/08/06 06:51:52;;;;;;;12.45;11.13;;;15.70;99.90;;;;;;5074734;28;20040;-72
2023/08/06 06:54:18;;;;;;;11.23;10.18;;;15.80;99.90;;;;;;5074764;28;20052;-77
2023/08/06 06:56:43;;;;;;;12.73;11.52;;;15.80;99.90;;;;;;5074801;28;20048;-78
2023/08/06 06:59:09;;;;;;;11.45;10.35;;;15.80;99.90;;;;;;5075007;28;20082;-78
2023/08/06 07:01:34;;;;;;;14.27;11.18;;;15.90;99.90;;;;;;5074577;28;20047;-77
2023/08/06 07:04:04;;;;;;;11.85;10.65;;;15.90;99.90;;;;;;5074704;28;20044;-72
2023/08/06 07:06:30;;;;;;;10.10;9.20;;;16.00;99.90;;;;;;5074913;28;20071;-77
2023/08/06 07:08:56;;;;;;;12.32;10.55;;;16.00;99.90;;;;;;5074365;28;20456;-71
2023/08/06 07:11:22;;;;;;;12.35;10.20;;;16.00;99.90;;;;;;5075820;28;20045;-71
2023/08/06 07:13:47;;;;;;;12.57;11.27;;;16.10;99.90;;;;;;5074476;28;20051;-71
2023/08/06 07:16:13;;;;;;;11.27;10.13;;;16.10;99.90;;;;;;5074522;28;20110;-71
2023/08/06 07:18:38;;;;;;;11.43;10.23;;;16.00;99.90;;;;;;5074457;28;20036;-71
2023/08/06 07:21:04;;;;;;;11.52;10.30;;;16.00;99.90;;;;;;5074313;28;20124;-71
2023/08/06 07:23:29;;;;;;;11.15;10.15;;;16.20;99.90;;;;;;5075867;28;20047;-71
2023/08/06 07:25:55;;;;;;;12.20;10.23;;;16.20;99.90;;;;;;5074810;28;20039;-71
2023/08/06 07:28:22;;;;;;;10.15;9.23;;;16.20;99.90;;;;;;5075538;28;20040;-71
2023/08/06 07:30:48;;;;;;;10.38;9.38;;;16.30;99.90;;;;;;5074498;28;20036;-71
2023/08/06 07:33:13;;;;;;;9.93;9.02;;;16.40;99.90;;;;;;5074083;28;20041;-71
2023/08/06 07:35:39;;;;;;;9.70;8.63;;;16.50;99.90;;;;;;5074067;28;20044;-71
2023/08/06 07:38:05;;;;;;;10.35;8.90;;;16.50;99.90;;;;;;5075605;28;20068;-71
2023/08/06 07:40:31;;;;;;;10.55;9.52;;;16.50;99.90;;;;;;5073907;28;20115;-71
2023/08/06 07:42:56;;;;;;;10.15;9.10;;;16.50;99.90;;;;;;5073987;28;20036;-71
2023/08/06 07:45:22;;;;;;;9.60;8.70;;;16.60;99.90;;;;;;5074150;28;20048;-71
2023/08/06 07:47:47;;;;;;;10.45;9.10;;;16.60;99.90;;;;;;5075232;28;20478;-71
2023/08/06 07:50:13;;;;;;;9.55;8.55;;;16.70;99.90;;;;;;5075282;28;20032;-71
2023/08/06 07:52:39;;;;;;;10.15;9.05;;;16.70;99.90;;;;;;5074975;28;20048;-71
2023/08/06 07:55:05;;;;;;;9.88;8.88;;;16.70;99.90;;;;;;5075255;28;20047;-71
2023/08/06 07:57:31;;;;;;;10.35;8.68;;;16.70;99.90;;;;;;5057239;28;20508;-72
2023/08/06 07:59:57;;;;;;;9.32;8.40;;;16.80;99.90;;;;;;5073628;28;20055;-72
2023/08/06 08:02:23;;;;;;;9.50;8.70;;;16.80;99.90;;;;;;5074832;28;20032;-72
2023/08/06 08:04:48;;;;;;;10.50;8.88;;;16.90;99.90;;;;;;5074787;28;20040;-72
2023/08/06 08:07:14;;;;;;;8.93;7.75;;;16.90;99.90;;;;;;5074697;28;20082;-72
2023/08/06 08:09:40;;;;;;;10.20;8.07;;;17.00;99.90;;;;;;5074657;28;20033;-72
2023/08/06 08:12:06;;;;;;;9.32;8.43;;;17.00;99.90;;;;;;5073618;28;20037;-72
2023/08/06 08:14:36;;;;;;;11.48;8.60;;;17.00;99.90;;;;;;5073254;28;20420;-72
2023/08/06 08:17:05;;;;;;;8.70;7.60;;;17.10;99.90;;;;;;5073266;28;20408;-72
2023/08/06 08:19:32;;;;;;;9.30;7.30;;;17.10;99.90;;;;;;5074401;28;20516;-72
2023/08/06 08:21:58;;;;;;;8.43;7.63;;;17.10;99.90;;;;;;5074665;28;20086;-72
2023/08/06 08:24:23;;;;;;;7.97;7.18;;;17.10;99.90;;;;;;5074381;28;20045;-72
2023/08/06 08:26:50;;;;;;;8.30;6.57;;;17.20;99.90;;;;;;5073203;28;20045;-72
2023/08/06 08:29:16;;;;;;;7.90;6.85;;;17.30;99.90;;;;;;5073148;28;20049;-72
2023/08/06 08:31:43;;;;;;;9.13;7.43;;;17.30;99.90;;;;;;5072920;28;20117;-72
2023/08/06 08:34:09;;;;;;;9.82;7.22;;;17.40;99.90;;;;;;5072945;28;20044;-71
2023/08/06 08:36:34;;;;;;;8.98;7.22;;;17.50;99.90;;;;;;5072443;28;20162;-71
2023/08/06 08:39:00;;;;;;;7.38;6.60;;;17.50;99.90;;;;;;5072847;28;20036;-71
2023/08/06 08:41:29;;;;;;;7.30;6.60;;;17.60;99.90;;;;;;5072706;28;20036;-71
2023/08/06 08:43:56;;;;;;;9.10;6.63;;;17.70;99.90;;;;;;5072851;28;20125;-71
2023/08/06 08:46:21;;;;;;;7.78;6.75;;;17.70;99.90;;;;;;5072727;28;20121;-71
2023/08/06 08:48:47;;;;;;;6.93;5.85;;;17.80;99.90;;;;;;5073881;28;20087;-71
2023/08/06 08:51:13;;;;;;;12.02;7.30;;;17.90;99.90;;;;;;5074113;28;20039;-71
2023/08/06 08:53:39;;;;;;;10.38;6.93;;;18.10;99.90;;;;;;5072541;28;20044;-71
2023/08/06 08:56:05;;;;;;;7.45;6.75;;;18.10;99.90;;;;;;5074034;28;20094;-71
2023/08/06 08:58:31;;;;;;;9.00;6.40;;;18.10;99.90;;;;;;5072490;28;20087;-71
2023/08/06 09:00:57;;;;;;;6.93;5.90;;;18.20;99.90;;;;;;5072444;28;20039;-72
2023/08/06 09:03:23;;;;;;;6.32;5.68;;;18.20;99.90;;;;;;5072342;28;20040;-72
2023/08/06 09:05:53;;;;;;;6.82;5.70;;;18.20;99.90;;;;;;5072347;28;20045;-72
2023/08/06 09:08:24;;;;;;;6.90;6.20;;;18.20;99.90;;;;;;5072380;28;20064;-72
2023/08/06 09:10:52;;;;;;;6.45;5.75;;;18.30;99.90;;;;;;5072093;28;20098;-72
2023/08/06 09:13:17;;;;;;;6.57;6.00;;;18.30;99.90;;;;;;5072226;28;20072;-72
2023/08/06 09:15:44;;;;;;;7.25;5.53;;;18.40;99.90;;;;;;5072327;28;20060;-72
2023/08/06 09:18:11;;;;;;;6.63;5.30;;;18.30;99.90;;;;;;5073672;28;20074;-72
2023/08/06 09:20:40;;;;;;;6.18;5.22;;;18.40;99.90;;;;;;5072420;28;20090;-72
2023/08/06 09:23:10;;;;;;;10.30;5.50;;;18.40;99.90;;;;;;5055488;28;20041;-72
2023/08/06 09:25:39;;;;;;;6.50;4.55;;;18.50;99.90;;;;;;5072078;28;20040;-72
2023/08/06 09:28:05;;;;;;;7.43;4.50;;;18.60;99.90;;;;;;5072174;28;20044;-72
2023/08/06 09:30:35;;;;;;;6.97;4.88;;;18.60;99.90;;;;;;5072007;28;20036;-72
2023/08/06 09:33:02;;;;;;;6.90;4.57;;;18.70;99.90;;;;;;5071932;28;20451;-72
2023/08/06 09:35:29;;;;;;;5.13;4.45;;;18.80;99.90;;;;;;5071990;28;20036;-72
2023/08/06 09:37:55;;;;;;;6.05;4.55;;;18.80;99.90;;;;;;5072174;28;20036;-72
2023/08/06 09:40:25;;;;;;;5.25;4.20;;;18.80;99.90;;;;;;5073090;28;20028;-72
2023/08/06 09:42:51;;;;;;;4.95;4.32;;;18.90;99.90;;;;;;5073153;28;20515;-72
2023/08/06 09:45:16;;;;;;;4.85;4.20;;;19.00;99.90;;;;;;5071889;28;20052;-72
2023/08/06 09:47:42;;;;;;;4.65;3.97;;;19.00;99.90;;;;;;5054409;28;20444;-72
2023/08/06 09:50:20;;;;;;;7.32;4.65;;;19.10;99.90;;;;;;5071817;28;20045;-72
2023/08/06 09:52:51;;;;;;;4.95;3.72;;;19.20;99.90;;;;;;5071752;28;20102;-72
2023/08/06 09:55:18;;;;;;;6.40;4.03;;;19.30;99.90;;;;;;5072034;28;20503;-72
2023/08/06 09:57:45;;;;;;;5.40;4.38;;;19.40;99.90;;;;;;5073063;28;20032;-72
2023/08/06 10:00:12;;;;;;;10.60;4.60;;;19.50;99.90;;;;;;5072995;28;20044;-72
2023/08/06 10:02:39;;;;;;;5.32;3.90;;;19.60;99.90;;;;;;5071715;28;20036;-72
2023/08/06 10:05:05;;;;;;;5.03;3.90;;;19.70;99.90;;;;;;5071716;28;20080;-72
2023/08/06 10:07:31;;;;;;;3.95;3.53;;;19.80;99.90;;;;;;5071807;28;20044;-72
2023/08/06 10:09:58;;;;;;;5.18;3.47;;;19.90;99.90;;;;;;5072867;28;20032;-72
2023/08/06 10:12:26;;;;;;;5.53;3.70;;;20.10;99.90;;;;;;5072654;28;20486;-72
2023/08/06 10:14:55;;;;;;;4.45;3.47;;;20.20;99.90;;;;;;5071593;28;20086;-72
2023/08/06 10:17:22;;;;;;;4.18;3.00;;;20.40;99.90;;;;;;5071542;28;20500;-72
2023/08/06 10:19:49;;;;;;;5.47;3.47;;;20.40;99.90;;;;;;5071852;28;20044;-72
2023/08/06 10:22:17;;;;;;;4.30;3.28;;;20.50;99.90;;;;;;5071570;28;20036;-72
2023/08/06 10:24:53;;;;;;;5.15;3.10;;;20.60;99.90;;;;;;5071500;28;20115;-72
2023/08/06 10:27:28;;;;;;;5.65;3.08;;;20.50;99.90;;;;;;5071822;28;20049;-72
2023/08/06 10:29:53;;;;;;;5.80;2.25;;;20.70;99.90;;;;;;5071735;28;20067;-72
2023/08/06 10:32:19;;;;;;;4.28;1.88;;;20.80;99.90;;;;;;5071332;28;20489;-72
2023/08/06 10:34:57;;;;;;;4.18;1.90;;;21.00;99.90;;;;;;5071446;28;20101;-72
2023/08/06 10:37:24;;;;;;;5.03;1.77;;;21.10;99.90;;;;;;5071392;28;20497;-72
2023/08/06 10:39:53;;;;;;;4.03;1.55;;;21.20;99.90;;;;;;5071608;28;20037;-72
2023/08/06 10:42:26;;;;;;;4.43;1.60;;;21.40;99.90;;;;;;5054579;28;20036;-72
2023/08/06 10:45:15;;;;;;;4.40;2.35;;;21.50;99.90;;;;;;5071643;28;20041;-72
2023/08/06 10:47:41;;;;;;;4.05;1.75;;;21.70;99.90;;;;;;5071542;28;20048;-72
2023/08/06 10:50:10;;;;;;;1.90;1.38;;;21.80;99.90;;;;;;5071214;28;20044;-72
2023/08/06 10:52:36;;;;;;;4.35;1.65;;;22.00;99.90;;;;;;5071348;28;20404;-72
2023/08/06 10:55:02;;;;;;;4.60;1.80;;;22.20;99.90;;;;;;5071332;28;20485;-72
2023/08/06 10:57:27;;;;;;;2.75;1.60;;;22.30;99.90;;;;;;5073037;28;20039;-72
2023/08/06 10:59:53;;;;;;;3.55;1.60;;;22.40;99.90;;;;;;5073351;28;20485;-72
2023/08/06 11:02:19;;;;;;;3.42;1.42;;;22.50;99.90;;;;;;5074728;28;20050;-72
2023/08/06 11:04:44;;;;;;;1.90;1.40;;;22.50;99.90;;;;;;5074719;28;20036;-72
2023/08/06 11:07:10;;;;;;;3.15;1.40;;;22.40;99.90;;;;;;5074710;28;20048;-72
2023/08/06 11:09:37;;;;;;;1.77;1.40;;;22.20;99.90;;;;;;5074462;28;20090;-72
2023/08/06 11:12:06;;;;;;;2.55;1.45;;;22.10;99.90;;;;;;5057831;28;20044;-72
2023/08/06 11:14:32;;;;;;;2.75;1.30;;;22.00;99.90;;;;;;5074756;28;20047;-72
2023/08/06 11:16:57;;;;;;;2.45;1.33;;;21.90;99.90;;;;;;5057769;28;20486;-72
2023/08/06 11:19:23;;;;;;;3.35;1.25;;;21.80;99.90;;;;;;5075955;28;20055;-72
2023/08/06 11:21:51;;;;;;;3.58;1.38;;;21.70;99.90;;;;;;5074226;28;20047;-72
2023/08/06 11:24:17;;;;;;;2.75;1.40;;;21.70;99.90;;;;;;5074599;28;20040;-72
2023/08/06 11:26:44;;;;;;;3.28;1.40;;;21.60;99.90;;;;;;5074381;28;20040;-72
2023/08/06 11:29:10;;;;;;;2.35;1.40;;;21.50;99.90;;;;;;5074178;28;20055;-72
2023/08/06 11:31:36;;;;;;;3.00;1.55;;;21.50;99.90;;;;;;5074361;28;20048;-72
2023/08/06 11:34:02;;;;;;;3.03;1.88;;;21.40;99.90;;;;;;5074068;28;20044;-72
2023/08/06 11:36:32;;;;;;;2.15;1.33;;;21.40;99.90;;;;;;5074362;28;20063;-72
2023/08/06 11:38:59;;;;;;;3.20;1.50;;;21.40;99.90;;;;;;5074337;28;20076;-72
2023/08/06 11:41:24;;;;;;;2.75;1.50;;;21.30;99.90;;;;;;5074295;28;20068;-72
2023/08/06 11:43:51;;;;;;;2.67;1.42;;;21.30;99.90;;;;;;5074227;28;20137;-72
2023/08/06 11:46:16;;;;;;;6.78;1.67;;;21.20;99.90;;;;;;5073925;28;20051;-72
2023/08/06 11:48:52;;;;;;;4.20;1.30;;;21.10;99.90;;;;;;5075437;28;20032;-72
2023/08/06 11:51:18;;;;;;;2.65;1.15;;;21.20;99.90;;;;;;5073864;28;20044;-72
2023/08/06 11:53:49;;;;;;;3.30;1.40;;;21.20;99.90;;;;;;5074030;28;20051;-72
2023/08/06 11:56:15;;;;;;;5.07;1.48;;;21.20;99.90;;;;;;5075325;28;20036;-72
2023/08/06 11:58:42;;;;;;;4.97;1.35;;;21.20;99.90;;;;;;5074015;28;20051;-72
2023/08/06 12:01:07;;;;;;;4.00;1.45;;;21.20;99.90;;;;;;5074848;28;20033;-72
2023/08/06 12:03:38;;;;;;;2.35;1.35;;;21.30;99.90;;;;;;5075151;28;20504;-72
2023/08/06 12:06:04;;;;;;;3.13;1.42;;;21.30;99.90;;;;;;5074872;28;20467;-72
2023/08/06 12:08:29;;;;;;;2.97;1.40;;;21.40;99.90;;;;;;5075005;28;20075;-72
2023/08/06 12:10:55;;;;;;;3.83;1.20;;;21.50;99.90;;;;;;5072687;28;20036;-72
2023/08/06 12:13:21;;;;;;;2.25;1.33;;;21.50;99.90;;;;;;5073300;28;20425;-72
2023/08/06 12:15:46;;;;;;;2.53;1.45;;;21.60;99.90;;;;;;5056656;28;20037;-72
2023/08/06 12:18:12;;;;;;;6.22;1.20;;;21.60;99.90;;;;;;5073869;28;20119;-72
2023/08/06 12:20:38;;;;;;;3.42;1.20;;;21.60;99.90;;;;;;5073425;28;20033;-72
2023/08/06 12:23:04;;;;;;;2.60;1.35;;;21.50;99.90;;;;;;5073176;28;20040;-72
2023/08/06 12:25:30;;;;;;;2.90;1.30;;;21.50;99.90;;;;;;5074438;28;20043;-72
2023/08/06 12:27:55;;;;;;;4.55;1.40;;;21.40;99.90;;;;;;5073100;28;20044;-72
2023/08/06 12:30:21;;;;;;;3.50;1.58;;;21.50;99.90;;;;;;5056351;28;20032;-71
2023/08/06 12:32:47;;;;;;;3.15;1.25;;;21.90;99.90;;;;;;5073144;28;20048;-71
2023/08/06 12:35:14;;;;;;;2.25;1.45;;;22.30;99.90;;;;;;5073165;28;20456;-72
2023/08/06 12:37:39;;;;;;;5.82;1.42;;;22.60;99.90;;;;;;5072902;28;20049;-72